Terminal Aerodrome Forecast
Issued by NWS

Home | Current Version | Previous Version | Text Only | Print | Product List | Glossary Off
Versions: 1 2 3 4 5 6 7 8 9 10 11 12 13 14 15 16 17 18 19 20 21

000
FTUS43 KGRB 221758 AAA
TAFCWA
TAF AMD
KCWA 221758Z 2218/2318 23004KT P6SM BKN035
      TEMPO 2218/2220 BKN028
     FM222200 26005KT P6SM SCT050
     FM230100 VRB03KT P6SM SCT250
     FM230800 VRB02KT 3SM BR SCT005
      TEMPO 2309/2313 1SM BR
     FM231300 00000KT P6SM SCT250
     FM231600 21006KT P6SM SCT040=

USA.gov is the U.S. government's official web portal to all federal, state and local government web resources and services.